Flight Track Log - Related Links

Times and Time Zones

All times are in EDT time to prevent confusion due to time zone crossing. See the FIN767 flight status page for this flight to view local times or setup timezone preferences in your user account.

Time Position Orientation Groundspeed Altitude Reporting Facility
EDT Latitude Longitude Course Direction KTS MPH feet Rate Location/Type
Mon 11:25:00 AM 60.0454 24.7050 205° Southwest  Level Estimated
Mon 11:26:00 AM 59.9547 24.6199 205° Southwest  Level Estimated
Mon 11:27:00 AM 59.8639 24.5352 205° Southwest  Level Estimated
Mon 11:28:00 AM 59.7731 24.4510 205° Southwest  Level Estimated
Mon 11:29:00 AM 59.6822 24.3672 205° Southwest  Level Estimated
Mon 11:30:00 AM 59.5877 24.2806 205° Southwest  Level Estimated
Mon 11:31:00 AM 59.4931 24.1945 205° Southwest  Level Estimated
Mon 11:32:00 AM 59.3984 24.1088 205° Southwest  Level Estimated
Mon 11:33:00 AM 59.3037 24.0236 205° Southwest  Level Estimated
Mon 11:34:00 AM 59.2090 23.9389 205° Southwest  Level Estimated
Mon 11:35:00 AM 59.1141 23.8547 205° Southwest  Level Estimated
Mon 11:36:00 AM 59.0193 23.7710 204° Southwest  Level Estimated
Mon 11:37:00 AM 58.9243 23.6877 204° Southwest  Level Estimated
Mon 11:38:00 AM 58.8293 23.6048 204° Southwest  Level Estimated
Mon 11:39:00 AM 58.7343 23.5224 204° Southwest  Level Estimated
Mon 11:40:00 AM 58.6392 23.4405 204° Southwest  Level Estimated
Mon 11:41:00 AM 58.5441 23.3590 204° Southwest  Level Estimated
Mon 11:42:00 AM 58.4489 23.2779 204° Southwest  Level Estimated
Mon 11:43:00 AM 58.3537 23.1973 204° Southwest  Level Estimated
Mon 11:44:00 AM 58.2584 23.1171 204° Southwest  Level Estimated
Mon 11:45:00 AM 58.1630 23.0374 204° Southwest  Level Estimated
Mon 11:46:00 AM 58.0676 22.9580 204° Southwest  Level Estimated
Mon 11:47:00 AM 57.9722 22.8791 204° Southwest  Level Estimated
Mon 11:48:00 AM 57.8767 22.8006 204° Southwest  Level Estimated
Mon 11:49:00 AM 57.7812 22.7226 204° Southwest  Level Estimated
Mon 11:50:00 AM 57.6856 22.6449 203° Southwest  Level Estimated
Mon 11:51:00 AM 57.5900 22.5677 203° Southwest  Level Estimated
Mon 11:52:00 AM 57.4943 22.4908 203° Southwest  Level Estimated
Mon 11:53:00 AM 57.3986 22.4144 203° Southwest  Level Estimated
Mon 11:54:00 AM 57.3028 22.3383 203° Southwest  Level Estimated
Mon 11:55:00 AM 57.2070 22.2627 203° Southwest  Level Estimated
Mon 11:56:00 AM 57.1111 22.1874 203° Southwest  Level Estimated
Mon 11:57:00 AM 57.0152 22.1126 203° Southwest  Level Estimated
Mon 11:58:00 AM 56.9193 22.0381 203° Southwest  Level Estimated
Mon 11:59:00 AM 56.8233 21.9640 203° Southwest  Level Estimated
Mon 12:00:00 PM 56.7272 21.8903 203° Southwest  Level Estimated
Mon 12:01:00 PM 56.6311 21.8169 203° Southwest  Level Estimated
Mon 12:02:00 PM 56.5350 21.7439 203° Southwest  Level Estimated
Mon 12:03:00 PM 56.4389 21.6713 203° Southwest  Level Estimated
Mon 12:04:00 PM 56.3427 21.5991 203° Southwest  Level Estimated
Mon 12:05:00 PM 56.2464 21.5272 203° Southwest  Level Estimated
Mon 12:06:00 PM 56.1501 21.4557 202° Southwest  Level Estimated
Mon 12:07:00 PM 56.0538 21.3846 202° Southwest  Level Estimated
Mon 12:08:00 PM 55.9574 21.3137 202° Southwest  Level Estimated
Mon 12:09:00 PM 55.8610 21.2433 202° Southwest  Level Estimated
Mon 12:10:00 PM 55.7645 21.1732 202° Southwest  Level Estimated
Mon 12:11:00 PM 55.6680 21.1034 202° Southwest  Level Estimated
Mon 12:12:00 PM 55.5715 21.0340 202° Southwest  Level Estimated
Mon 12:13:00 PM 55.4749 20.9650 202° Southwest  Level Estimated
Mon 12:14:00 PM 55.3783 20.8962 202° Southwest  Level Estimated
Mon 12:15:00 PM 55.2817 20.8278 202° Southwest  Level Estimated
Mon 12:16:00 PM 55.1850 20.7598 202° Southwest  Level Estimated
Mon 12:17:00 PM 55.0883 20.6920 202° Southwest  Level Estimated
Mon 12:18:00 PM 54.9915 20.6246 202° Southwest  Level Estimated
Mon 12:19:00 PM 54.8947 20.5575 202° Southwest  Level Estimated
Mon 12:20:00 PM 54.7979 20.4908 202° Southwest  Level Estimated
Mon 12:21:00 PM 54.7010 20.4243 202° Southwest  Level Estimated
Mon 12:22:00 PM 54.6041 20.3582 202° Southwest  Level Estimated
Mon 12:23:00 PM 54.5071 20.2924 202° Southwest  Level Estimated
Mon 12:24:00 PM 54.4102 20.2269 201° Southwest  Level Estimated
Mon 12:25:00 PM 54.3131 20.1617 201° Southwest  Level Estimated
Mon 12:26:00 PM 54.2161 20.0968 201° Southwest  Level Estimated
Mon 12:27:00 PM 54.1190 20.0322 201° Southwest  Level Estimated
Mon 12:28:00 PM 54.0219 19.9679 201° Southwest  Level Estimated
Mon 12:29:00 PM 53.9247 19.9040 201° Southwest  Level Estimated
Mon 12:30:00 PM 53.8275 19.8403 201° Southwest  Level Estimated
Mon 12:31:00 PM 53.7303 19.7769 201° Southwest  Level Estimated
Mon 12:32:00 PM 53.6331 19.7138 201° Southwest  Level Estimated
Mon 12:33:00 PM 53.5358 19.6510 201° Southwest  Level Estimated
Mon 12:34:00 PM 53.4385 19.5885 201° Southwest  Level Estimated
Mon 12:35:00 PM 53.3411 19.5262 201° Southwest  Level Estimated
Mon 12:36:00 PM 53.2437 19.4643 201° Southwest  Level Estimated
Mon 12:37:00 PM 53.1463 19.4026 201° Southwest  Level Estimated
Mon 12:38:00 PM 53.0489 19.3412 201° Southwest  Level Estimated
Mon 12:39:00 PM 52.9514 19.2801 201° Southwest  Level Estimated
Mon 12:40:00 PM 52.8531 19.2188 201° Southwest  Level Estimated
Mon 12:41:00 PM 52.7548 19.1577 201° Southwest  Level Estimated
Mon 12:42:00 PM 52.6564 19.0970 201° Southwest  Level Estimated
Mon 12:43:00 PM 52.5580 19.0365 201° Southwest  Level Estimated
Mon 12:44:00 PM 52.4596 18.9763 200° South  Level Estimated
Mon 12:45:00 PM 52.3612 18.9163 200° South  Level Estimated
Mon 12:46:00 PM 52.2627 18.8566 200° South  Level Estimated
Mon 12:47:00 PM 52.1642 18.7972 200° South  Level Estimated
Mon 12:48:00 PM 52.0657 18.7380 200° South  Level Estimated
Mon 12:49:00 PM 51.9671 18.6791 200° South  Level Estimated
Mon 12:50:00 PM 51.8685 18.6205 200° South  Level Estimated
Mon 12:51:00 PM 51.7699 18.5621 200° South  Level Estimated
Mon 12:52:00 PM 51.6712 18.5040 200° South  Level Estimated
Mon 12:53:00 PM 51.5725 18.4461 200° South  Level Estimated
Mon 12:54:00 PM 51.4738 18.3885 200° South  Level Estimated
Mon 12:55:00 PM 51.3751 18.3311 200° South  Level Estimated
Mon 12:56:00 PM 51.2763 18.2739 200° South  Level Estimated
Mon 12:57:00 PM 51.1775 18.2171 200° South  Level Estimated
Mon 12:58:00 PM 51.0787 18.1604 200° South  Level Estimated
Mon 12:59:00 PM 50.9799 18.1040 200° South  Level Estimated
Mon 01:00:00 PM 50.8810 18.0478 200° South  Level Estimated
Mon 01:01:00 PM 50.7821 17.9919 200° South  Level Estimated
Mon 01:02:00 PM 50.6832 17.9362 200° South  Level Estimated
Mon 01:03:00 PM 50.5842 17.8808 200° South  Level Estimated
Mon 01:04:00 PM 50.4852 17.8255 200° South  Level Estimated
Mon 01:05:00 PM 50.3862 17.7705 200° South  Level Estimated
Mon 01:06:00 PM 50.2872 17.7158 199° South  Level Estimated
Mon 01:07:00 PM 50.1881 17.6612 199° South  Level Estimated
Mon 01:08:00 PM 50.0890 17.6069 199° South  Level Estimated
Mon 01:09:00 PM 49.9899 17.5529 199° South  Level Estimated
Mon 01:10:00 PM 49.8908 17.4990 199° South  Level Estimated
Mon 01:11:00 PM 49.7916 17.4454 199° South  Level Estimated
Mon 01:12:00 PM 49.6924 17.3919 199° South  Level Estimated
Mon 01:13:00 PM 49.5932 17.3387 199° South  Level Estimated
Mon 01:14:00 PM 49.4940 17.2857 199° South  Level Estimated
Mon 01:15:00 PM 49.3947 17.2330 199° South  Level Estimated
Mon 01:16:00 PM 49.2955 17.1804 199° South  Level Estimated
Mon 01:17:00 PM 49.1962 17.1280 199° South  Level Estimated
Mon 01:18:00 PM 49.0968 17.0759 199° South  Level Estimated
Mon 01:19:00 PM 48.9975 17.0240 199° South  Level Estimated
Mon 01:20:00 PM 48.8981 16.9722 199° South  Level Estimated
Mon 01:21:00 PM 48.7987 16.9207 199° South  Level Estimated
Mon 01:22:00 PM 48.6993 16.8694 199° South  Level Estimated
Mon 01:23:00 PM 48.5912 16.8139 199° South  Level Estimated
Mon 01:24:00 PM 48.4831 16.7586 199° South  Level Estimated
Mon 01:25:00 PM 48.3749 16.7035 199° South  Level Estimated
Mon 01:26:00 PM 48.2668 16.6486 199° South  Level Estimated
Mon 01:27:00 PM 48.1586 16.5940 199° South  Level Estimated
Mon 01:28:00 PM 48.1103 16.5697 199° South  Level Estimated
Mon 01:29:00 PM 48.1103 16.5697 North  Level Estimated
Mon 01:30:00 PM 48.1103 16.5697 North  Level Estimated
Mon 01:31:00 PM 48.1103 16.5697 North  Level Estimated
Mon 01:32:00 PM 48.1103 16.5697 North  Level Estimated
Mon 01:33:00 PM 48.1103 16.5697 North  Level Estimated

Login

Don't have an account? Register now (free) for customized features, flight alerts, and more!